sensor_id;sensor_type;location;lat;lon;timestamp;P1;durP1;ratioP1;P2;durP2;ratioP2
75191;SDS011;63771;52.580;9.734;2022-12-07T00:01:29;19.98;;;11.85;;
75191;SDS011;63771;52.580;9.734;2022-12-07T00:03:56;20.60;;;10.48;;
75191;SDS011;63771;52.580;9.734;2022-12-07T00:06:29;19.45;;;11.52;;
75191;SDS011;63771;52.580;9.734;2022-12-07T00:08:54;20.25;;;12.07;;
75191;SDS011;63771;52.580;9.734;2022-12-07T00:11:20;24.65;;;12.32;;
75191;SDS011;63771;52.580;9.734;2022-12-07T00:13:51;22.02;;;12.55;;
75191;SDS011;63771;52.580;9.734;2022-12-07T00:16:18;24.60;;;13.80;;
75191;SDS011;63771;52.580;9.734;2022-12-07T00:18:45;23.38;;;12.52;;
75191;SDS011;63771;52.580;9.734;2022-12-07T00:21:12;21.27;;;11.05;;
75191;SDS011;63771;52.580;9.734;2022-12-07T00:23:39;21.77;;;12.98;;
75191;SDS011;63771;52.580;9.734;2022-12-07T00:26:10;28.00;;;13.57;;
75191;SDS011;63771;52.580;9.734;2022-12-07T00:28:41;29.38;;;12.98;;
75191;SDS011;63771;52.580;9.734;2022-12-07T00:31:11;22.65;;;13.70;;
75191;SDS011;63771;52.580;9.734;2022-12-07T00:33:37;25.45;;;13.65;;
75191;SDS011;63771;52.580;9.734;2022-12-07T00:36:06;26.55;;;14.32;;
75191;SDS011;63771;52.580;9.734;2022-12-07T00:38:34;22.30;;;12.52;;
75191;SDS011;63771;52.580;9.734;2022-12-07T00:41:03;25.88;;;14.60;;
75191;SDS011;63771;52.580;9.734;2022-12-07T00:43:30;26.65;;;13.73;;
75191;SDS011;63771;52.580;9.734;2022-12-07T00:45:55;26.25;;;16.58;;
75191;SDS011;63771;52.580;9.734;2022-12-07T00:48:21;22.35;;;12.82;;
75191;SDS011;63771;52.580;9.734;2022-12-07T00:50:48;28.90;;;15.05;;
75191;SDS011;63771;52.580;9.734;2022-12-07T00:53:14;25.00;;;14.77;;
75191;SDS011;63771;52.580;9.734;2022-12-07T00:55:40;23.70;;;16.23;;
75191;SDS011;63771;52.580;9.734;2022-12-07T00:58:06;30.35;;;15.93;;
75191;SDS011;63771;52.580;9.734;2022-12-07T01:00:31;31.15;;;14.73;;
75191;SDS011;63771;52.580;9.734;2022-12-07T01:02:58;28.42;;;15.02;;
75191;SDS011;63771;52.580;9.734;2022-12-07T01:05:24;34.60;;;15.70;;
75191;SDS011;63771;52.580;9.734;2022-12-07T01:07:49;29.55;;;15.32;;
75191;SDS011;63771;52.580;9.734;2022-12-07T01:10:14;27.07;;;13.67;;
75191;SDS011;63771;52.580;9.734;2022-12-07T01:12:40;23.38;;;14.82;;
75191;SDS011;63771;52.580;9.734;2022-12-07T01:15:06;23.38;;;11.95;;
75191;SDS011;63771;52.580;9.734;2022-12-07T01:17:32;26.17;;;13.52;;
75191;SDS011;63771;52.580;9.734;2022-12-07T01:19:57;25.75;;;14.57;;
75191;SDS011;63771;52.580;9.734;2022-12-07T01:22:23;20.90;;;12.40;;
75191;SDS011;63771;52.580;9.734;2022-12-07T01:24:48;23.90;;;11.80;;
75191;SDS011;63771;52.580;9.734;2022-12-07T01:27:14;29.23;;;14.17;;
75191;SDS011;63771;52.580;9.734;2022-12-07T01:29:40;23.40;;;13.55;;
75191;SDS011;63771;52.580;9.734;2022-12-07T01:32:05;26.60;;;13.33;;
75191;SDS011;63771;52.580;9.734;2022-12-07T01:34:30;21.60;;;13.50;;
75191;SDS011;63771;52.580;9.734;2022-12-07T01:36:56;23.35;;;14.25;;
75191;SDS011;63771;52.580;9.734;2022-12-07T01:39:22;23.00;;;14.00;;
75191;SDS011;63771;52.580;9.734;2022-12-07T01:41:47;24.75;;;14.32;;
75191;SDS011;63771;52.580;9.734;2022-12-07T01:44:20;27.40;;;15.33;;
75191;SDS011;63771;52.580;9.734;2022-12-07T01:46:47;22.05;;;13.80;;
75191;SDS011;63771;52.580;9.734;2022-12-07T01:49:22;28.15;;;14.38;;
75191;SDS011;63771;52.580;9.734;2022-12-07T01:52:01;21.17;;;13.00;;
75191;SDS011;63771;52.580;9.734;2022-12-07T01:54:46;22.25;;;12.60;;
75191;SDS011;63771;52.580;9.734;2022-12-07T01:59:40;20.08;;;10.75;;
75191;SDS011;63771;52.580;9.734;2022-12-07T02:02:07;20.88;;;11.73;;
75191;SDS011;63771;52.580;9.734;2022-12-07T02:04:41;21.88;;;12.02;;
75191;SDS011;63771;52.580;9.734;2022-12-07T02:07:07;22.23;;;11.98;;
75191;SDS011;63771;52.580;9.734;2022-12-07T02:09:32;21.30;;;11.63;;
75191;SDS011;63771;52.580;9.734;2022-12-07T02:11:58;18.83;;;12.17;;
75191;SDS011;63771;52.580;9.734;2022-12-07T02:14:23;18.60;;;10.90;;
75191;SDS011;63771;52.580;9.734;2022-12-07T02:20:02;15.75;;;10.55;;
75191;SDS011;63771;52.580;9.734;2022-12-07T02:27:56;18.92;;;11.55;;
75191;SDS011;63771;52.580;9.734;2022-12-07T02:30:32;16.58;;;10.07;;
75191;SDS011;63771;52.580;9.734;2022-12-07T02:33:09;21.92;;;11.90;;
75191;SDS011;63771;52.580;9.734;2022-12-07T02:38:25;14.80;;;9.45;;
75191;SDS011;63771;52.580;9.734;2022-12-07T02:41:06;17.58;;;11.07;;
75191;SDS011;63771;52.580;9.734;2022-12-07T02:43:39;15.77;;;10.15;;
75191;SDS011;63771;52.580;9.734;2022-12-07T02:46:11;15.32;;;9.50;;
75191;SDS011;63771;52.580;9.734;2022-12-07T02:48:40;17.65;;;10.48;;
75191;SDS011;63771;52.580;9.734;2022-12-07T02:51:07;17.08;;;10.05;;
75191;SDS011;63771;52.580;9.734;2022-12-07T02:53:34;15.93;;;10.00;;
75191;SDS011;63771;52.580;9.734;2022-12-07T03:07:05;14.48;;;9.52;;
75191;SDS011;63771;52.580;9.734;2022-12-07T03:10:19;17.08;;;10.38;;
75191;SDS011;63771;52.580;9.734;2022-12-07T03:12:42;13.10;;;9.02;;
75191;SDS011;63771;52.580;9.734;2022-12-07T03:15:26;14.70;;;8.80;;
75191;SDS011;63771;52.580;9.734;2022-12-07T03:17:56;12.25;;;9.25;;
75191;SDS011;63771;52.580;9.734;2022-12-07T03:20:25;13.60;;;9.75;;
75191;SDS011;63771;52.580;9.734;2022-12-07T03:22:54;17.42;;;9.82;;
75191;SDS011;63771;52.580;9.734;2022-12-07T03:25:19;14.75;;;8.57;;
75191;SDS011;63771;52.580;9.734;2022-12-07T03:27:55;14.85;;;9.80;;
75191;SDS011;63771;52.580;9.734;2022-12-07T03:30:24;13.65;;;9.75;;
75191;SDS011;63771;52.580;9.734;2022-12-07T03:33:07;12.02;;;8.30;;
75191;SDS011;63771;52.580;9.734;2022-12-07T03:35:39;14.15;;;8.35;;
75191;SDS011;63771;52.580;9.734;2022-12-07T03:38:15;14.10;;;7.97;;
75191;SDS011;63771;52.580;9.734;2022-12-07T03:43:23;13.65;;;8.20;;
75191;SDS011;63771;52.580;9.734;2022-12-07T03:45:56;12.77;;;7.80;;
75191;SDS011;63771;52.580;9.734;2022-12-07T03:48:37;14.30;;;7.68;;
75191;SDS011;63771;52.580;9.734;2022-12-07T03:51:10;12.27;;;7.68;;
75191;SDS011;63771;52.580;9.734;2022-12-07T03:53:39;12.52;;;8.27;;
75191;SDS011;63771;52.580;9.734;2022-12-07T03:56:19;11.77;;;8.48;;
75191;SDS011;63771;52.580;9.734;2022-12-07T03:58:46;11.43;;;7.22;;
75191;SDS011;63771;52.580;9.734;2022-12-07T04:01:12;13.13;;;8.05;;
75191;SDS011;63771;52.580;9.734;2022-12-07T04:03:38;9.83;;;7.43;;
75191;SDS011;63771;52.580;9.734;2022-12-07T04:06:03;8.95;;;6.93;;
75191;SDS011;63771;52.580;9.734;2022-12-07T04:08:29;11.95;;;6.97;;
75191;SDS011;63771;52.580;9.734;2022-12-07T04:10:55;11.60;;;7.68;;
75191;SDS011;63771;52.580;9.734;2022-12-07T04:13:20;14.47;;;8.17;;
75191;SDS011;63771;52.580;9.734;2022-12-07T04:15:45;11.67;;;6.37;;
75191;SDS011;63771;52.580;9.734;2022-12-07T04:18:11;18.33;;;6.97;;
75191;SDS011;63771;52.580;9.734;2022-12-07T04:20:36;12.87;;;7.77;;
75191;SDS011;63771;52.580;9.734;2022-12-07T04:23:01;11.57;;;7.33;;
75191;SDS011;63771;52.580;9.734;2022-12-07T04:25:27;12.97;;;7.30;;
75191;SDS011;63771;52.580;9.734;2022-12-07T04:27:52;13.80;;;7.23;;
75191;SDS011;63771;52.580;9.734;2022-12-07T04:30:18;10.55;;;7.30;;
75191;SDS011;63771;52.580;9.734;2022-12-07T04:32:43;11.13;;;6.70;;
75191;SDS011;63771;52.580;9.734;2022-12-07T04:35:08;11.03;;;6.63;;
75191;SDS011;63771;52.580;9.734;2022-12-07T04:37:34;10.43;;;8.13;;
75191;SDS011;63771;52.580;9.734;2022-12-07T04:39:59;12.87;;;7.80;;
75191;SDS011;63771;52.580;9.734;2022-12-07T04:42:24;11.50;;;6.90;;
75191;SDS011;63771;52.580;9.734;2022-12-07T04:44:50;13.27;;;6.77;;
75191;SDS011;63771;52.580;9.734;2022-12-07T04:47:16;9.32;;;6.75;;
75191;SDS011;63771;52.580;9.734;2022-12-07T04:49:41;12.13;;;6.63;;
75191;SDS011;63771;52.580;9.734;2022-12-07T04:52:06;9.70;;;6.77;;
75191;SDS011;63771;52.580;9.734;2022-12-07T04:54:32;12.20;;;6.87;;
75191;SDS011;63771;52.580;9.734;2022-12-07T04:56:57;12.17;;;7.97;;
75191;SDS011;63771;52.580;9.734;2022-12-07T04:59:22;10.40;;;6.67;;
75191;SDS011;63771;52.580;9.734;2022-12-07T05:01:48;10.93;;;7.55;;
75191;SDS011;63771;52.580;9.734;2022-12-07T05:04:13;9.82;;;6.88;;
75191;SDS011;63771;52.580;9.734;2022-12-07T05:06:38;7.60;;;5.17;;
75191;SDS011;63771;52.580;9.734;2022-12-07T05:09:04;11.07;;;5.73;;
75191;SDS011;63771;52.580;9.734;2022-12-07T05:11:30;10.68;;;5.88;;
75191;SDS011;63771;52.580;9.734;2022-12-07T05:14:06;8.40;;;5.80;;
75191;SDS011;63771;52.580;9.734;2022-12-07T05:16:31;10.07;;;6.07;;
75191;SDS011;63771;52.580;9.734;2022-12-07T05:18:57;14.23;;;6.63;;
75191;SDS011;63771;52.580;9.734;2022-12-07T05:21:23;14.50;;;6.47;;
75191;SDS011;63771;52.580;9.734;2022-12-07T05:23:48;10.15;;;7.03;;
75191;SDS011;63771;52.580;9.734;2022-12-07T05:26:14;8.35;;;5.60;;
75191;SDS011;63771;52.580;9.734;2022-12-07T05:28:39;9.63;;;6.32;;
75191;SDS011;63771;52.580;9.734;2022-12-07T05:31:05;8.57;;;6.60;;
75191;SDS011;63771;52.580;9.734;2022-12-07T05:33:30;11.93;;;6.77;;
75191;SDS011;63771;52.580;9.734;2022-12-07T05:35:55;9.20;;;7.43;;
75191;SDS011;63771;52.580;9.734;2022-12-07T05:38:21;8.87;;;6.13;;
75191;SDS011;63771;52.580;9.734;2022-12-07T05:40:46;11.97;;;7.27;;
75191;SDS011;63771;52.580;9.734;2022-12-07T05:43:11;15.33;;;6.73;;
75191;SDS011;63771;52.580;9.734;2022-12-07T05:45:37;10.07;;;6.93;;
75191;SDS011;63771;52.580;9.734;2022-12-07T05:48:02;8.10;;;6.00;;
75191;SDS011;63771;52.580;9.734;2022-12-07T05:50:27;10.25;;;6.30;;
75191;SDS011;63771;52.580;9.734;2022-12-07T05:52:53;8.77;;;5.70;;
75191;SDS011;63771;52.580;9.734;2022-12-07T05:55:19;7.60;;;5.78;;
75191;SDS011;63771;52.580;9.734;2022-12-07T05:57:44;8.63;;;5.35;;
75191;SDS011;63771;52.580;9.734;2022-12-07T06:00:30;8.57;;;5.45;;
75191;SDS011;63771;52.580;9.734;2022-12-07T06:02:55;7.55;;;5.13;;
75191;SDS011;63771;52.580;9.734;2022-12-07T06:05:20;10.53;;;5.70;;
75191;SDS011;63771;52.580;9.734;2022-12-07T06:07:46;9.07;;;5.17;;
75191;SDS011;63771;52.580;9.734;2022-12-07T06:10:11;10.77;;;4.90;;
75191;SDS011;63771;52.580;9.734;2022-12-07T06:12:36;11.13;;;6.20;;
75191;SDS011;63771;52.580;9.734;2022-12-07T06:15:04;7.68;;;4.50;;
75191;SDS011;63771;52.580;9.734;2022-12-07T06:17:30;7.43;;;4.93;;
75191;SDS011;63771;52.580;9.734;2022-12-07T06:19:55;8.35;;;4.65;;
75191;SDS011;63771;52.580;9.734;2022-12-07T06:22:21;11.47;;;4.60;;
75191;SDS011;63771;52.580;9.734;2022-12-07T06:24:46;8.57;;;5.13;;
75191;SDS011;63771;52.580;9.734;2022-12-07T06:27:12;6.38;;;4.55;;
75191;SDS011;63771;52.580;9.734;2022-12-07T06:29:37;4.40;;;3.75;;
75191;SDS011;63771;52.580;9.734;2022-12-07T06:32:03;6.70;;;4.55;;
75191;SDS011;63771;52.580;9.734;2022-12-07T06:34:28;7.55;;;4.57;;
75191;SDS011;63771;52.580;9.734;2022-12-07T06:36:54;6.03;;;4.13;;
75191;SDS011;63771;52.580;9.734;2022-12-07T06:39:26;7.75;;;4.47;;
75191;SDS011;63771;52.580;9.734;2022-12-07T06:41:52;6.30;;;3.75;;
75191;SDS011;63771;52.580;9.734;2022-12-07T06:44:19;4.40;;;3.75;;
75191;SDS011;63771;52.580;9.734;2022-12-07T06:46:45;4.13;;;3.72;;
75191;SDS011;63771;52.580;9.734;2022-12-07T06:49:10;7.80;;;4.53;;
75191;SDS011;63771;52.580;9.734;2022-12-07T06:51:35;15.50;;;5.10;;
75191;SDS011;63771;52.580;9.734;2022-12-07T06:54:02;12.77;;;4.90;;
75191;SDS011;63771;52.580;9.734;2022-12-07T06:56:28;5.88;;;4.07;;
75191;SDS011;63771;52.580;9.734;2022-12-07T06:58:54;7.85;;;3.95;;
75191;SDS011;63771;52.580;9.734;2022-12-07T07:01:20;5.72;;;3.22;;
75191;SDS011;63771;52.580;9.734;2022-12-07T07:03:45;7.65;;;4.63;;
75191;SDS011;63771;52.580;9.734;2022-12-07T07:06:11;7.68;;;4.28;;
75191;SDS011;63771;52.580;9.734;2022-12-07T07:08:38;7.25;;;3.88;;
75191;SDS011;63771;52.580;9.734;2022-12-07T07:11:04;6.88;;;5.78;;
75191;SDS011;63771;52.580;9.734;2022-12-07T07:13:30;6.25;;;3.95;;
75191;SDS011;63771;52.580;9.734;2022-12-07T07:15:56;7.15;;;4.25;;
75191;SDS011;63771;52.580;9.734;2022-12-07T07:18:21;6.38;;;4.15;;
75191;SDS011;63771;52.580;9.734;2022-12-07T07:20:47;9.90;;;4.45;;
75191;SDS011;63771;52.580;9.734;2022-12-07T07:23:12;6.03;;;4.17;;
75191;SDS011;63771;52.580;9.734;2022-12-07T07:25:38;6.47;;;3.80;;
75191;SDS011;63771;52.580;9.734;2022-12-07T07:28:03;10.95;;;4.55;;
75191;SDS011;63771;52.580;9.734;2022-12-07T07:30:29;6.50;;;3.90;;
75191;SDS011;63771;52.580;9.734;2022-12-07T07:33:01;6.30;;;3.67;;
75191;SDS011;63771;52.580;9.734;2022-12-07T07:35:28;6.50;;;4.30;;
75191;SDS011;63771;52.580;9.734;2022-12-07T07:37:55;6.20;;;3.75;;
75191;SDS011;63771;52.580;9.734;2022-12-07T07:40:20;4.97;;;3.38;;
75191;SDS011;63771;52.580;9.734;2022-12-07T07:42:49;4.85;;;3.38;;
75191;SDS011;63771;52.580;9.734;2022-12-07T07:45:22;9.82;;;3.83;;
75191;SDS011;63771;52.580;9.734;2022-12-07T07:47:48;6.03;;;3.92;;
75191;SDS011;63771;52.580;9.734;2022-12-07T07:50:14;7.43;;;3.53;;
75191;SDS011;63771;52.580;9.734;2022-12-07T07:52:40;8.45;;;3.67;;
75191;SDS011;63771;52.580;9.734;2022-12-07T07:55:06;4.35;;;2.95;;
75191;SDS011;63771;52.580;9.734;2022-12-07T07:57:34;5.38;;;3.70;;
75191;SDS011;63771;52.580;9.734;2022-12-07T08:00:00;5.30;;;3.15;;
75191;SDS011;63771;52.580;9.734;2022-12-07T08:02:25;5.20;;;3.33;;
75191;SDS011;63771;52.580;9.734;2022-12-07T08:04:51;4.35;;;3.95;;
75191;SDS011;63771;52.580;9.734;2022-12-07T08:07:16;8.53;;;3.37;;
75191;SDS011;63771;52.580;9.734;2022-12-07T08:09:41;8.57;;;4.80;;
75191;SDS011;63771;52.580;9.734;2022-12-07T08:12:07;10.87;;;5.77;;
75191;SDS011;63771;52.580;9.734;2022-12-07T08:14:33;6.78;;;6.03;;
75191;SDS011;63771;52.580;9.734;2022-12-07T08:16:59;13.00;;;7.35;;
75191;SDS011;63771;52.580;9.734;2022-12-07T08:19:25;9.68;;;7.45;;
75191;SDS011;63771;52.580;9.734;2022-12-07T08:21:51;10.20;;;7.20;;
75191;SDS011;63771;52.580;9.734;2022-12-07T08:24:16;11.88;;;7.13;;
75191;SDS011;63771;52.580;9.734;2022-12-07T08:26:42;9.55;;;5.75;;
75191;SDS011;63771;52.580;9.734;2022-12-07T08:29:07;7.93;;;6.13;;
75191;SDS011;63771;52.580;9.734;2022-12-07T08:31:33;9.23;;;4.80;;
75191;SDS011;63771;52.580;9.734;2022-12-07T08:33:58;4.82;;;4.20;;
75191;SDS011;63771;52.580;9.734;2022-12-07T08:36:24;7.80;;;4.03;;
75191;SDS011;63771;52.580;9.734;2022-12-07T08:38:49;7.00;;;3.97;;
75191;SDS011;63771;52.580;9.734;2022-12-07T08:41:15;3.88;;;3.33;;
75191;SDS011;63771;52.580;9.734;2022-12-07T08:43:41;4.20;;;3.53;;
75191;SDS011;63771;52.580;9.734;2022-12-07T08:46:09;6.65;;;3.95;;
75191;SDS011;63771;52.580;9.734;2022-12-07T08:48:39;6.90;;;3.72;;
75191;SDS011;63771;52.580;9.734;2022-12-07T08:51:08;6.93;;;4.15;;
75191;SDS011;63771;52.580;9.734;2022-12-07T08:53:34;4.28;;;3.88;;
75191;SDS011;63771;52.580;9.734;2022-12-07T08:56:01;5.13;;;4.50;;
75191;SDS011;63771;52.580;9.734;2022-12-07T08:58:27;8.35;;;3.63;;
75191;SDS011;63771;52.580;9.734;2022-12-07T09:00:53;3.65;;;3.35;;
75191;SDS011;63771;52.580;9.734;2022-12-07T09:03:18;3.57;;;2.87;;
75191;SDS011;63771;52.580;9.734;2022-12-07T09:05:43;4.57;;;2.70;;
75191;SDS011;63771;52.580;9.734;2022-12-07T09:08:09;5.53;;;3.00;;
75191;SDS011;63771;52.580;9.734;2022-12-07T09:10:34;2.88;;;2.70;;
75191;SDS011;63771;52.580;9.734;2022-12-07T09:13:00;3.60;;;2.73;;
75191;SDS011;63771;52.580;9.734;2022-12-07T09:15:26;4.65;;;3.33;;
75191;SDS011;63771;52.580;9.734;2022-12-07T09:17:52;4.00;;;3.28;;
75191;SDS011;63771;52.580;9.734;2022-12-07T09:20:18;3.15;;;2.95;;
75191;SDS011;63771;52.580;9.734;2022-12-07T09:22:43;3.70;;;3.17;;
75191;SDS011;63771;52.580;9.734;2022-12-07T09:25:08;4.20;;;3.07;;
75191;SDS011;63771;52.580;9.734;2022-12-07T09:27:34;4.20;;;3.00;;
75191;SDS011;63771;52.580;9.734;2022-12-07T09:29:59;2.70;;;2.60;;
75191;SDS011;63771;52.580;9.734;2022-12-07T09:32:24;6.07;;;3.37;;
75191;SDS011;63771;52.580;9.734;2022-12-07T09:34:50;3.40;;;3.10;;
75191;SDS011;63771;52.580;9.734;2022-12-07T09:37:15;2.70;;;2.07;;
75191;SDS011;63771;52.580;9.734;2022-12-07T09:39:40;4.47;;;3.00;;
75191;SDS011;63771;52.580;9.734;2022-12-07T09:42:06;5.00;;;2.53;;
75191;SDS011;63771;52.580;9.734;2022-12-07T09:44:33;7.53;;;2.83;;
75191;SDS011;63771;52.580;9.734;2022-12-07T09:46:59;2.63;;;2.28;;
75191;SDS011;63771;52.580;9.734;2022-12-07T09:49:27;2.63;;;2.42;;
75191;SDS011;63771;52.580;9.734;2022-12-07T09:52:02;2.95;;;2.00;;
75191;SDS011;63771;52.580;9.734;2022-12-07T09:54:44;2.85;;;2.15;;
75191;SDS011;63771;52.580;9.734;2022-12-07T09:57:12;3.80;;;1.83;;
75191;SDS011;63771;52.580;9.734;2022-12-07T09:59:38;2.95;;;2.03;;
75191;SDS011;63771;52.580;9.734;2022-12-07T10:02:25;2.72;;;2.20;;
75191;SDS011;63771;52.580;9.734;2022-12-07T10:04:59;3.53;;;3.00;;
75191;SDS011;63771;52.580;9.734;2022-12-07T10:07:25;7.75;;;2.47;;
75191;SDS011;63771;52.580;9.734;2022-12-07T10:09:50;2.35;;;2.25;;
75191;SDS011;63771;52.580;9.734;2022-12-07T10:12:15;3.47;;;2.05;;
75191;SDS011;63771;52.580;9.734;2022-12-07T10:14:59;5.20;;;2.20;;
75191;SDS011;63771;52.580;9.734;2022-12-07T10:17:31;4.57;;;1.75;;
75191;SDS011;63771;52.580;9.734;2022-12-07T10:22:37;1.90;;;1.80;;
75191;SDS011;63771;52.580;9.734;2022-12-07T10:25:19;3.42;;;2.20;;
75191;SDS011;63771;52.580;9.734;2022-12-07T10:27:57;1.83;;;1.73;;
75191;SDS011;63771;52.580;9.734;2022-12-07T10:31:01;3.45;;;1.90;;
75191;SDS011;63771;52.580;9.734;2022-12-07T10:35:56;3.20;;;2.25;;
75191;SDS011;63771;52.580;9.734;2022-12-07T10:38:22;2.20;;;2.10;;
75191;SDS011;63771;52.580;9.734;2022-12-07T10:41:02;2.50;;;2.30;;
75191;SDS011;63771;52.580;9.734;2022-12-07T10:43:31;2.92;;;2.67;;
75191;SDS011;63771;52.580;9.734;2022-12-07T10:54:17;3.35;;;3.05;;
75191;SDS011;63771;52.580;9.734;2022-12-07T11:00:00;3.28;;;2.60;;
75191;SDS011;63771;52.580;9.734;2022-12-07T11:18:53;3.28;;;1.75;;
75191;SDS011;63771;52.580;9.734;2022-12-07T11:21:38;2.70;;;1.50;;
75191;SDS011;63771;52.580;9.734;2022-12-07T11:24:10;1.70;;;1.27;;
75191;SDS011;63771;52.580;9.734;2022-12-07T11:32:11;1.67;;;1.58;;
75191;SDS011;63771;52.580;9.734;2022-12-07T11:34:54;2.50;;;2.33;;
75191;SDS011;63771;52.580;9.734;2022-12-07T11:37:29;1.85;;;1.75;;
75191;SDS011;63771;52.580;9.734;2022-12-07T11:40:43;1.63;;;1.52;;
75191;SDS011;63771;52.580;9.734;2022-12-07T11:42:51;2.10;;;2.00;;
75191;SDS011;63771;52.580;9.734;2022-12-07T11:45:26;2.78;;;1.95;;
75191;SDS011;63771;52.580;9.734;2022-12-07T11:48:02;1.60;;;1.50;;
75191;SDS011;63771;52.580;9.734;2022-12-07T11:50:39;3.85;;;2.05;;
75191;SDS011;63771;52.580;9.734;2022-12-07T12:01:16;5.32;;;2.28;;
75191;SDS011;63771;52.580;9.734;2022-12-07T12:03:52;2.80;;;1.85;;
75191;SDS011;63771;52.580;9.734;2022-12-07T12:06:21;4.80;;;2.13;;
75191;SDS011;63771;52.580;9.734;2022-12-07T12:08:50;2.90;;;2.00;;
75191;SDS011;63771;52.580;9.734;2022-12-07T12:19:34;2.55;;;2.45;;
75191;SDS011;63771;52.580;9.734;2022-12-07T12:22:16;1.92;;;1.83;;
75191;SDS011;63771;52.580;9.734;2022-12-07T12:24:43;2.50;;;2.30;;
75191;SDS011;63771;52.580;9.734;2022-12-07T12:27:21;4.00;;;2.42;;
75191;SDS011;63771;52.580;9.734;2022-12-07T12:29:52;3.33;;;2.63;;
75191;SDS011;63771;52.580;9.734;2022-12-07T12:32:20;5.72;;;2.60;;
75191;SDS011;63771;52.580;9.734;2022-12-07T12:35:20;4.50;;;3.40;;
75191;SDS011;63771;52.580;9.734;2022-12-07T12:37:53;2.55;;;2.35;;
75191;SDS011;63771;52.580;9.734;2022-12-07T12:42:53;4.43;;;3.30;;
75191;SDS011;63771;52.580;9.734;2022-12-07T12:45:21;3.20;;;2.90;;
75191;SDS011;63771;52.580;9.734;2022-12-07T12:53:23;2.65;;;2.45;;
75191;SDS011;63771;52.580;9.734;2022-12-07T12:58:38;2.55;;;2.20;;
75191;SDS011;63771;52.580;9.734;2022-12-07T13:03:56;3.60;;;2.08;;
75191;SDS011;63771;52.580;9.734;2022-12-07T13:08:51;5.53;;;2.42;;
75191;SDS011;63771;52.580;9.734;2022-12-07T13:11:24;6.45;;;2.75;;
75191;SDS011;63771;52.580;9.734;2022-12-07T13:16:59;2.28;;;2.15;;
75191;SDS011;63771;52.580;9.734;2022-12-07T13:19:52;1.63;;;1.60;;
75191;SDS011;63771;52.580;9.734;2022-12-07T13:25:07;3.05;;;1.98;;
75191;SDS011;63771;52.580;9.734;2022-12-07T13:27:54;5.50;;;1.77;;
75191;SDS011;63771;52.580;9.734;2022-12-07T13:30:22;3.83;;;2.00;;
75191;SDS011;63771;52.580;9.734;2022-12-07T13:32:54;3.70;;;2.10;;
75191;SDS011;63771;52.580;9.734;2022-12-07T13:37:55;3.33;;;2.47;;
75191;SDS011;63771;52.580;9.734;2022-12-07T13:40:22;4.47;;;1.95;;
75191;SDS011;63771;52.580;9.734;2022-12-07T13:42:56;9.07;;;2.35;;
75191;SDS011;63771;52.580;9.734;2022-12-07T13:45:24;2.92;;;2.13;;
75191;SDS011;63771;52.580;9.734;2022-12-07T13:51:26;4.32;;;1.90;;
75191;SDS011;63771;52.580;9.734;2022-12-07T13:53:59;2.97;;;1.83;;
75191;SDS011;63771;52.580;9.734;2022-12-07T13:56:33;1.88;;;1.42;;
75191;SDS011;63771;52.580;9.734;2022-12-07T13:58:59;4.45;;;2.20;;
75191;SDS011;63771;52.580;9.734;2022-12-07T14:01:25;3.72;;;1.92;;
75191;SDS011;63771;52.580;9.734;2022-12-07T14:03:51;7.05;;;1.83;;
75191;SDS011;63771;52.580;9.734;2022-12-07T14:06:18;3.03;;;1.70;;
75191;SDS011;63771;52.580;9.734;2022-12-07T14:08:47;6.68;;;1.65;;
75191;SDS011;63771;52.580;9.734;2022-12-07T14:11:14;6.10;;;2.22;;
75191;SDS011;63771;52.580;9.734;2022-12-07T14:19:00;6.68;;;2.25;;
75191;SDS011;63771;52.580;9.734;2022-12-07T14:21:28;9.75;;;2.00;;
75191;SDS011;63771;52.580;9.734;2022-12-07T14:26:43;2.33;;;1.77;;
75191;SDS011;63771;52.580;9.734;2022-12-07T14:31:51;10.07;;;2.20;;
75191;SDS011;63771;52.580;9.734;2022-12-07T14:34:19;1.80;;;1.77;;
75191;SDS011;63771;52.580;9.734;2022-12-07T14:36:45;3.30;;;1.83;;
75191;SDS011;63771;52.580;9.734;2022-12-07T14:39:10;2.20;;;2.00;;
75191;SDS011;63771;52.580;9.734;2022-12-07T14:41:35;3.03;;;2.00;;
75191;SDS011;63771;52.580;9.734;2022-12-07T14:44:16;4.65;;;1.63;;
75191;SDS011;63771;52.580;9.734;2022-12-07T14:46:43;0.60;;;0.60;;
75191;SDS011;63771;52.580;9.734;2022-12-07T14:49:08;4.00;;;3.63;;
75191;SDS011;63771;52.580;9.734;2022-12-07T14:51:33;8.20;;;7.10;;
75191;SDS011;63771;52.580;9.734;2022-12-07T14:54:02;9.63;;;7.95;;
75191;SDS011;63771;52.580;9.734;2022-12-07T14:56:30;7.63;;;7.13;;
75191;SDS011;63771;52.580;9.734;2022-12-07T14:58:55;3.70;;;1.80;;
75191;SDS011;63771;52.580;9.734;2022-12-07T15:01:20;7.60;;;1.40;;
75191;SDS011;63771;52.580;9.734;2022-12-07T15:03:46;1.10;;;0.90;;
75191;SDS011;63771;52.580;9.734;2022-12-07T15:06:13;4.37;;;1.30;;
75191;SDS011;63771;52.580;9.734;2022-12-07T15:11:05;2.53;;;0.90;;
75191;SDS011;63771;52.580;9.734;2022-12-07T15:13:30;1.70;;;0.95;;
75191;SDS011;63771;52.580;9.734;2022-12-07T15:16:16;1.30;;;1.20;;
75191;SDS011;63771;52.580;9.734;2022-12-07T15:18:45;1.70;;;1.60;;
75191;SDS011;63771;52.580;9.734;2022-12-07T15:21:14;1.67;;;1.25;;
75191;SDS011;63771;52.580;9.734;2022-12-07T15:23:40;1.98;;;1.48;;
75191;SDS011;63771;52.580;9.734;2022-12-07T15:26:05;4.95;;;1.83;;
75191;SDS011;63771;52.580;9.734;2022-12-07T15:28:31;3.53;;;1.23;;
75191;SDS011;63771;52.580;9.734;2022-12-07T15:30:56;1.77;;;1.50;;
75191;SDS011;63771;52.580;9.734;2022-12-07T15:33:21;1.80;;;1.70;;
75191;SDS011;63771;52.580;9.734;2022-12-07T15:35:47;2.83;;;1.58;;
75191;SDS011;63771;52.580;9.734;2022-12-07T15:38:12;1.58;;;1.45;;
75191;SDS011;63771;52.580;9.734;2022-12-07T15:40:38;2.50;;;2.40;;
75191;SDS011;63771;52.580;9.734;2022-12-07T15:43:03;2.03;;;1.77;;
75191;SDS011;63771;52.580;9.734;2022-12-07T15:45:29;7.85;;;2.33;;
75191;SDS011;63771;52.580;9.734;2022-12-07T15:47:54;2.00;;;1.63;;
75191;SDS011;63771;52.580;9.734;2022-12-07T15:50:22;1.73;;;1.63;;
75191;SDS011;63771;52.580;9.734;2022-12-07T15:52:48;2.33;;;2.08;;
75191;SDS011;63771;52.580;9.734;2022-12-07T15:55:13;3.35;;;2.15;;
75191;SDS011;63771;52.580;9.734;2022-12-07T15:57:39;3.38;;;2.20;;
75191;SDS011;63771;52.580;9.734;2022-12-07T16:00:05;2.35;;;2.25;;
75191;SDS011;63771;52.580;9.734;2022-12-07T16:02:31;2.50;;;1.95;;
75191;SDS011;63771;52.580;9.734;2022-12-07T16:04:57;3.10;;;2.90;;
75191;SDS011;63771;52.580;9.734;2022-12-07T16:07:22;4.78;;;1.92;;
75191;SDS011;63771;52.580;9.734;2022-12-07T16:09:48;2.33;;;2.10;;
75191;SDS011;63771;52.580;9.734;2022-12-07T16:12:14;1.80;;;1.70;;
75191;SDS011;63771;52.580;9.734;2022-12-07T16:14:40;3.00;;;1.92;;
75191;SDS011;63771;52.580;9.734;2022-12-07T16:17:06;3.25;;;2.95;;
75191;SDS011;63771;52.580;9.734;2022-12-07T16:19:32;3.20;;;3.00;;
75191;SDS011;63771;52.580;9.734;2022-12-07T16:21:58;3.13;;;1.83;;
75191;SDS011;63771;52.580;9.734;2022-12-07T16:24:24;3.20;;;2.17;;
75191;SDS011;63771;52.580;9.734;2022-12-07T16:26:49;2.92;;;1.92;;
75191;SDS011;63771;52.580;9.734;2022-12-07T16:29:15;5.40;;;2.72;;
75191;SDS011;63771;52.580;9.734;2022-12-07T16:31:40;3.88;;;2.63;;
75191;SDS011;63771;52.580;9.734;2022-12-07T16:34:06;2.95;;;2.70;;
75191;SDS011;63771;52.580;9.734;2022-12-07T16:36:32;3.08;;;2.88;;
75191;SDS011;63771;52.580;9.734;2022-12-07T16:38:58;2.17;;;1.83;;
75191;SDS011;63771;52.580;9.734;2022-12-07T16:41:24;3.05;;;1.58;;
75191;SDS011;63771;52.580;9.734;2022-12-07T16:43:49;1.30;;;1.20;;
75191;SDS011;63771;52.580;9.734;2022-12-07T16:46:15;2.22;;;1.10;;
75191;SDS011;63771;52.580;9.734;2022-12-07T16:48:41;2.25;;;1.75;;
75191;SDS011;63771;52.580;9.734;2022-12-07T16:51:07;1.85;;;1.77;;